createdAt,value
2018-11-03T00:00:13.173Z,8.58
2018-11-03T00:01:16.684Z,8.25
2018-11-03T00:02:20.084Z,8.23
2018-11-03T00:03:23.481Z,8.63
2018-11-03T00:04:27.050Z,8.48
2018-11-03T00:05:30.447Z,9.03
2018-11-03T00:06:33.841Z,7.90
2018-11-03T00:07:37.219Z,7.28
2018-11-03T00:08:40.629Z,7.55
2018-11-03T00:09:44.018Z,6.95
2018-11-03T00:10:47.410Z,7.53
2018-11-03T00:11:50.817Z,7.35
2018-11-03T00:12:54.220Z,7.53
2018-11-03T00:13:57.628Z,7.33
2018-11-03T00:15:01.068Z,6.62
2018-11-03T00:16:04.587Z,7.40
2018-11-03T00:17:08.016Z,7.70
2018-11-03T00:18:11.450Z,7.42
2018-11-03T00:19:14.918Z,7.30
2018-11-03T00:20:18.336Z,7.30
2018-11-03T00:21:21.814Z,6.92
2018-11-03T00:22:25.230Z,7.08
2018-11-03T00:23:28.617Z,6.25
2018-11-03T00:24:32.045Z,7.83
2018-11-03T00:25:35.447Z,7.00
2018-11-03T00:26:38.823Z,6.62
2018-11-03T00:27:42.360Z,6.25
2018-11-03T00:28:45.809Z,7.08
2018-11-03T00:29:49.155Z,7.22
2018-11-03T00:30:52.537Z,7.03
2018-11-03T00:31:55.950Z,6.90
2018-11-03T00:32:59.340Z,6.35
2018-11-03T00:34:02.719Z,7.05
2018-11-03T00:35:06.309Z,8.45
2018-11-03T00:36:09.687Z,8.05
2018-11-03T00:37:13.321Z,7.47
2018-11-03T00:38:16.692Z,7.30
2018-11-03T00:39:20.078Z,7.80
2018-11-03T00:40:23.577Z,7.80
2018-11-03T00:41:26.930Z,7.78
2018-11-03T00:42:30.315Z,8.40
2018-11-03T00:43:33.710Z,8.53
2018-11-03T00:44:37.097Z,9.45
2018-11-03T00:45:40.528Z,9.08
2018-11-03T00:46:43.959Z,7.87
2018-11-03T00:47:47.429Z,7.25
2018-11-03T00:48:50.820Z,7.05
2018-11-03T00:49:54.222Z,6.70
2018-11-03T00:50:57.664Z,6.65
2018-11-03T00:52:01.058Z,7.37
2018-11-03T00:53:05.043Z,7.33
2018-11-03T00:54:08.400Z,9.48
2018-11-03T00:55:12.305Z,9.95
2018-11-03T00:56:15.725Z,9.80
2018-11-03T00:57:19.149Z,10.38
2018-11-03T00:58:22.535Z,9.43
2018-11-03T00:59:25.946Z,9.33
2018-11-03T01:00:29.327Z,10.23
2018-11-03T01:01:32.885Z,8.98
2018-11-03T01:02:36.268Z,9.68
2018-11-03T01:03:39.756Z,9.08
2018-11-03T01:04:43.143Z,8.28
2018-11-03T01:05:46.531Z,8.05
2018-11-03T01:06:49.911Z,8.50
2018-11-03T01:07:53.276Z,8.90
2018-11-03T01:08:56.669Z,8.73
2018-11-03T01:10:00.096Z,8.18
2018-11-03T01:11:03.481Z,8.35
2018-11-03T01:12:06.901Z,9.33
2018-11-03T01:13:10.281Z,10.10
2018-11-03T01:14:13.765Z,9.28
2018-11-03T01:15:18.253Z,8.28
2018-11-03T01:16:21.640Z,8.50
2018-11-03T01:17:25.040Z,7.78
2018-11-03T01:18:28.425Z,8.00
2018-11-03T01:19:31.812Z,8.15
2018-11-03T01:20:35.187Z,7.83
2018-11-03T01:21:38.623Z,7.97
2018-11-03T01:22:42.428Z,6.97
2018-11-03T01:23:45.866Z,7.33
2018-11-03T01:24:49.233Z,7.58
2018-11-03T01:25:52.633Z,7.67
2018-11-03T01:26:56.150Z,7.62
2018-11-03T01:27:59.603Z,7.90
2018-11-03T01:29:03.010Z,7.58
2018-11-03T01:30:10.535Z,6.75
2018-11-03T01:31:13.963Z,6.75
2018-11-03T01:32:17.376Z,6.67
2018-11-03T01:33:20.762Z,6.75
2018-11-03T01:34:24.153Z,7.33
2018-11-03T01:35:27.548Z,7.20
2018-11-03T01:36:30.926Z,6.47
2018-11-03T01:37:34.332Z,6.80
2018-11-03T01:38:37.896Z,6.45
2018-11-03T01:39:41.256Z,6.80
2018-11-03T01:40:44.617Z,6.90
2018-11-03T01:41:48.014Z,6.80
2018-11-03T01:42:51.419Z,6.70
2018-11-03T01:43:54.807Z,6.47
2018-11-03T01:44:58.192Z,6.95
2018-11-03T01:46:01.694Z,7.25
2018-11-03T01:47:05.544Z,6.62
2018-11-03T01:48:08.932Z,8.00
2018-11-03T01:49:12.339Z,7.05
2018-11-03T01:50:15.729Z,7.80
2018-11-03T01:51:19.203Z,8.00
2018-11-03T01:52:22.647Z,8.18
2018-11-03T01:53:26.040Z,7.65
2018-11-03T01:54:29.448Z,8.28
2018-11-03T01:55:32.820Z,8.10
2018-11-03T01:56:36.200Z,8.25
2018-11-03T01:57:39.559Z,8.33
2018-11-03T01:58:42.941Z,7.78
2018-11-03T01:59:46.355Z,8.03
2018-11-03T02:00:49.749Z,7.87
2018-11-03T02:01:53.139Z,7.15
2018-11-03T02:02:56.547Z,6.70
2018-11-03T02:03:59.968Z,6.87
2018-11-03T02:05:03.445Z,6.97
2018-11-03T02:06:06.831Z,7.05
2018-11-03T02:07:10.226Z,7.05
2018-11-03T02:08:13.608Z,7.55
2018-11-03T02:09:17.036Z,6.58
2018-11-03T02:10:20.460Z,6.97
2018-11-03T02:11:23.864Z,7.75
2018-11-03T02:12:27.253Z,7.28
2018-11-03T02:13:30.659Z,7.42
2018-11-03T02:14:34.033Z,7.33
2018-11-03T02:15:37.431Z,6.62
2018-11-03T02:16:40.874Z,6.90
2018-11-03T02:17:44.283Z,6.47
2018-11-03T02:18:47.682Z,6.90
2018-11-03T02:19:51.062Z,6.37
2018-11-03T02:20:54.476Z,7.00
2018-11-03T02:21:57.876Z,6.92
2018-11-03T02:23:01.296Z,6.62
2018-11-03T02:24:05.147Z,6.70
2018-11-03T02:25:08.911Z,6.83
2018-11-03T02:26:12.324Z,7.10
2018-11-03T02:27:15.719Z,6.28
2018-11-03T02:28:19.165Z,6.80
2018-11-03T02:29:22.760Z,6.53
2018-11-03T02:30:26.148Z,6.40
2018-11-03T02:31:29.572Z,7.37
2018-11-03T02:32:32.937Z,7.37
2018-11-03T02:33:36.321Z,7.08
2018-11-03T02:34:39.697Z,7.42
2018-11-03T02:35:43.069Z,6.87
2018-11-03T02:36:46.439Z,7.15
2018-11-03T02:37:49.808Z,7.87
2018-11-03T02:38:53.185Z,7.55
2018-11-03T02:39:56.559Z,7.78
2018-11-03T02:40:59.945Z,7.12
2018-11-03T02:42:03.339Z,7.42
2018-11-03T02:43:06.723Z,7.05
2018-11-03T02:44:10.525Z,7.05
2018-11-03T02:45:13.935Z,6.83
2018-11-03T02:46:17.317Z,7.08
2018-11-03T02:47:20.732Z,6.85
2018-11-03T02:48:24.100Z,6.58
2018-11-03T02:49:27.480Z,6.35
2018-11-03T02:50:30.889Z,7.50
2018-11-03T02:51:34.367Z,6.45
2018-11-03T02:52:37.837Z,6.72
2018-11-03T02:53:41.227Z,6.65
2018-11-03T02:54:44.608Z,6.20
2018-11-03T02:55:47.995Z,7.20
2018-11-03T02:56:51.389Z,6.35
2018-11-03T02:57:54.759Z,6.53
2018-11-03T02:58:58.133Z,6.53
2018-11-03T03:00:01.525Z,6.50
2018-11-03T03:01:04.976Z,6.78
2018-11-03T03:02:08.390Z,6.30
2018-11-03T03:03:11.783Z,6.70
2018-11-03T03:04:15.204Z,5.97
2018-11-03T03:05:18.568Z,6.67
2018-11-03T03:06:21.936Z,6.53
2018-11-03T03:07:25.472Z,6.45
2018-11-03T03:08:28.836Z,6.97
2018-11-03T03:09:32.228Z,6.58
2018-11-03T03:10:35.604Z,6.90
2018-11-03T03:11:38.982Z,6.70
2018-11-03T03:12:42.408Z,6.58
2018-11-03T03:13:45.793Z,7.17
2018-11-03T03:14:49.197Z,6.72
2018-11-03T03:15:52.626Z,7.03
2018-11-03T03:16:56.017Z,7.55
2018-11-03T03:17:59.394Z,6.92
2018-11-03T03:19:02.768Z,7.03
2018-11-03T03:20:07.733Z,7.05
2018-11-03T03:21:11.104Z,7.22
2018-11-03T03:22:14.507Z,6.70
2018-11-03T03:23:17.886Z,7.58
2018-11-03T03:24:21.260Z,7.15
2018-11-03T03:25:24.634Z,6.87
2018-11-03T03:26:28.033Z,6.97
2018-11-03T03:27:31.480Z,6.87
2018-11-03T03:28:34.865Z,6.37
2018-11-03T03:29:38.510Z,7.05
2018-11-03T03:30:41.810Z,6.70
2018-11-03T03:31:45.192Z,6.10
2018-11-03T03:32:48.601Z,6.90
2018-11-03T03:33:51.993Z,6.40
2018-11-03T03:34:55.405Z,7.03
2018-11-03T03:35:58.793Z,6.80
2018-11-03T03:37:02.193Z,6.55
2018-11-03T03:38:05.652Z,7.17
2018-11-03T03:39:10.004Z,6.28
2018-11-03T03:40:13.371Z,6.30
2018-11-03T03:41:16.764Z,7.12
2018-11-03T03:42:20.190Z,6.62
2018-11-03T03:43:23.596Z,7.00
2018-11-03T03:44:26.999Z,6.67
2018-11-03T03:45:30.372Z,6.75
2018-11-03T03:46:33.744Z,6.83
2018-11-03T03:47:37.133Z,6.72
2018-11-03T03:48:40.792Z,6.83
2018-11-03T03:49:44.294Z,6.60
2018-11-03T03:50:47.680Z,6.85
2018-11-03T03:51:51.177Z,6.35
2018-11-03T03:52:54.553Z,6.78
2018-11-03T03:53:57.956Z,6.12
2018-11-03T03:55:01.479Z,7.22
2018-11-03T03:56:04.930Z,7.20
2018-11-03T03:57:08.380Z,7.92
2018-11-03T03:58:12.002Z,8.93
2018-11-03T03:59:15.402Z,8.25
2018-11-03T04:00:18.773Z,7.72
2018-11-03T04:01:22.168Z,7.12
2018-11-03T04:02:25.567Z,6.92
2018-11-03T04:03:28.931Z,7.37
2018-11-03T04:04:32.350Z,6.80
2018-11-03T04:05:35.740Z,7.62
2018-11-03T04:06:39.177Z,6.45
2018-11-03T04:07:42.560Z,7.53
2018-11-03T04:08:45.931Z,6.78
2018-11-03T04:09:49.352Z,7.37
2018-11-03T04:10:52.733Z,7.85
2018-11-03T04:11:56.108Z,7.37
2018-11-03T04:12:59.501Z,7.60
2018-11-03T04:14:03.132Z,6.90
2018-11-03T04:15:06.823Z,7.40
2018-11-03T04:16:10.188Z,6.92
2018-11-03T04:17:13.590Z,7.58
2018-11-03T04:18:16.957Z,6.70
2018-11-03T04:19:20.349Z,7.08
2018-11-03T04:20:23.739Z,7.67
2018-11-03T04:21:29.228Z,7.00
2018-11-03T04:22:32.595Z,6.58
2018-11-03T04:23:36.000Z,6.50
2018-11-03T04:24:39.380Z,6.62
2018-11-03T04:25:43.477Z,7.17
2018-11-03T04:26:46.834Z,6.92
2018-11-03T04:27:50.230Z,7.30
2018-11-03T04:28:53.632Z,7.42
2018-11-03T04:29:57.017Z,6.92
2018-11-03T04:31:00.412Z,7.15
2018-11-03T04:32:03.810Z,7.10
2018-11-03T04:33:07.176Z,6.90
2018-11-03T04:34:10.568Z,6.42
2018-11-03T04:35:13.960Z,7.15
2018-11-03T04:36:17.355Z,6.42
2018-11-03T04:37:20.932Z,6.58
2018-11-03T04:38:24.316Z,6.37
2018-11-03T04:39:27.689Z,6.83
2018-11-03T04:40:31.089Z,6.95
2018-11-03T04:41:34.496Z,6.90
2018-11-03T04:42:37.859Z,6.65
2018-11-03T04:43:41.276Z,6.37
2018-11-03T04:44:44.848Z,6.95
2018-11-03T04:45:48.227Z,6.90
2018-11-03T04:46:51.653Z,7.00
2018-11-03T04:47:55.036Z,6.50
2018-11-03T04:49:02.580Z,6.53
2018-11-03T04:50:06.581Z,6.65
2018-11-03T04:51:09.976Z,6.70
2018-11-03T04:52:13.416Z,6.60
2018-11-03T04:53:16.817Z,6.08
2018-11-03T04:54:20.212Z,6.00
2018-11-03T04:55:23.718Z,6.53
2018-11-03T04:56:27.012Z,6.00
2018-11-03T04:57:30.404Z,6.37
2018-11-03T04:58:33.773Z,6.85
2018-11-03T04:59:37.185Z,6.70
2018-11-03T05:00:40.650Z,6.55
2018-11-03T05:01:44.068Z,6.17
2018-11-03T05:02:47.472Z,6.45
2018-11-03T05:03:50.938Z,7.10
2018-11-03T05:04:54.353Z,6.30
2018-11-03T05:05:57.744Z,6.65
2018-11-03T05:07:01.133Z,6.33
2018-11-03T05:08:04.717Z,6.92
2018-11-03T05:09:09.249Z,7.15
2018-11-03T05:10:12.754Z,6.25
2018-11-03T05:11:16.142Z,6.85
2018-11-03T05:12:19.556Z,6.65
2018-11-03T05:13:22.950Z,6.05
2018-11-03T05:14:26.364Z,6.60
2018-11-03T05:15:29.763Z,6.78
2018-11-03T05:16:33.163Z,6.35
2018-11-03T05:17:36.651Z,6.60
2018-11-03T05:18:40.368Z,6.60
2018-11-03T05:19:43.731Z,6.90
2018-11-03T05:20:47.100Z,6.53
2018-11-03T05:21:50.472Z,6.50
2018-11-03T05:22:53.874Z,6.67
2018-11-03T05:23:57.277Z,7.00
2018-11-03T05:25:00.711Z,6.40
2018-11-03T05:26:04.103Z,6.62
2018-11-03T05:27:07.484Z,6.47
2018-11-03T05:28:10.848Z,6.28
2018-11-03T05:29:14.247Z,6.45
2018-11-03T05:30:17.673Z,6.95
2018-11-03T05:31:22.083Z,6.30
2018-11-03T05:32:25.313Z,6.35
2018-11-03T05:33:28.715Z,6.03
2018-11-03T05:34:32.144Z,6.42
2018-11-03T05:35:35.531Z,6.33
2018-11-03T05:36:38.920Z,6.20
2018-11-03T05:37:42.298Z,6.08
2018-11-03T05:38:45.704Z,6.95
2018-11-03T05:39:49.119Z,6.37
2018-11-03T05:40:52.503Z,6.08
2018-11-03T05:41:55.864Z,6.40
2018-11-03T05:42:59.294Z,6.05
2018-11-03T05:44:02.703Z,6.62
2018-11-03T05:45:06.103Z,6.30
2018-11-03T05:46:09.509Z,6.95
2018-11-03T05:47:12.868Z,7.50
2018-11-03T05:48:16.264Z,6.55
2018-11-03T05:49:19.639Z,6.15
2018-11-03T05:50:23.036Z,6.58
2018-11-03T05:51:26.425Z,6.42
2018-11-03T05:52:29.781Z,6.62
2018-11-03T05:53:33.216Z,6.58
2018-11-03T05:54:36.613Z,6.83
2018-11-03T05:55:40.044Z,6.15
2018-11-03T05:56:43.425Z,7.17
2018-11-03T05:57:46.804Z,6.03
2018-11-03T05:58:50.254Z,6.42
2018-11-03T05:59:53.671Z,7.17
2018-11-03T06:00:57.085Z,6.78
2018-11-03T06:02:00.468Z,7.22
2018-11-03T06:03:03.839Z,6.92
2018-11-03T06:04:07.234Z,6.58
2018-11-03T06:05:10.611Z,6.83
2018-11-03T06:06:14.071Z,6.78
2018-11-03T06:07:17.450Z,7.10
2018-11-03T06:08:20.856Z,6.70
2018-11-03T06:09:24.270Z,7.00
2018-11-03T06:10:27.665Z,6.33
2018-11-03T06:11:31.088Z,7.12
2018-11-03T06:12:34.452Z,7.22
2018-11-03T06:13:37.861Z,6.53
2018-11-03T06:14:41.324Z,7.12
2018-11-03T06:15:44.857Z,7.10
2018-11-03T06:16:48.164Z,6.95
2018-11-03T06:17:51.563Z,7.42
2018-11-03T06:18:54.953Z,7.40
2018-11-03T06:19:58.384Z,7.70
2018-11-03T06:21:01.786Z,7.12
2018-11-03T06:22:05.291Z,7.42
2018-11-03T06:23:08.794Z,6.55
2018-11-03T06:24:12.136Z,7.15
2018-11-03T06:25:15.544Z,7.53
2018-11-03T06:26:18.923Z,7.22
2018-11-03T06:27:22.315Z,7.03
2018-11-03T06:28:25.695Z,7.22
2018-11-03T06:29:29.084Z,7.40
2018-11-03T06:30:32.470Z,7.30
2018-11-03T06:31:35.853Z,7.80
2018-11-03T06:32:39.935Z,8.65
2018-11-03T06:33:43.316Z,14.07
2018-11-03T06:34:46.691Z,14.65
2018-11-03T06:35:50.104Z,12.05
2018-11-03T06:36:53.505Z,8.63
2018-11-03T06:37:56.904Z,8.63
2018-11-03T06:39:00.342Z,7.62
2018-11-03T06:40:03.754Z,8.15
2018-11-03T06:41:07.164Z,7.33
2018-11-03T06:42:10.627Z,8.00
2018-11-03T06:43:14.049Z,7.05
2018-11-03T06:44:17.676Z,7.80
2018-11-03T06:45:21.117Z,8.00
2018-11-03T06:46:24.559Z,7.45
2018-11-03T06:47:27.983Z,7.47
2018-11-03T06:48:31.380Z,7.03
2018-11-03T06:49:34.772Z,6.80
2018-11-03T06:50:38.166Z,6.92
2018-11-03T06:51:41.570Z,6.60
2018-11-03T06:52:44.915Z,6.22
2018-11-03T06:53:48.312Z,6.65
2018-11-03T06:54:51.738Z,6.80
2018-11-03T06:55:55.124Z,7.25
2018-11-03T06:56:58.549Z,7.08
2018-11-03T06:58:02.200Z,7.53
2018-11-03T06:59:05.626Z,7.20
2018-11-03T07:00:09.894Z,6.35
2018-11-03T07:01:13.473Z,6.87
2018-11-03T07:02:16.893Z,6.47
2018-11-03T07:03:20.277Z,7.67
2018-11-03T07:04:23.695Z,6.95
2018-11-03T07:05:27.077Z,7.65
2018-11-03T07:06:30.487Z,6.92
2018-11-03T07:07:33.885Z,7.10
2018-11-03T07:08:37.281Z,8.13
2018-11-03T07:09:40.685Z,7.55
2018-11-03T07:10:44.068Z,7.22
2018-11-03T07:11:47.463Z,7.12
2018-11-03T07:12:50.912Z,7.47
2018-11-03T07:13:54.536Z,7.00
2018-11-03T07:14:57.963Z,7.10
2018-11-03T07:16:01.432Z,6.40
2018-11-03T07:17:04.960Z,7.33
2018-11-03T07:18:08.336Z,7.72
2018-11-03T07:19:11.758Z,7.78
2018-11-03T07:20:15.152Z,6.92
2018-11-03T07:21:18.700Z,6.95
2018-11-03T07:22:22.113Z,7.45
2018-11-03T07:23:25.691Z,6.70
2018-11-03T07:24:29.037Z,8.00
2018-11-03T07:25:32.480Z,7.78
2018-11-03T07:26:35.873Z,7.97
2018-11-03T07:27:39.261Z,8.13
2018-11-03T07:28:42.656Z,7.60
2018-11-03T07:29:46.111Z,7.50
2018-11-03T07:30:49.473Z,8.00
2018-11-03T07:31:52.866Z,7.78
2018-11-03T07:32:56.224Z,7.72
2018-11-03T07:33:59.617Z,7.40
2018-11-03T07:35:03.016Z,7.20
2018-11-03T07:36:06.440Z,7.30
2018-11-03T07:37:09.847Z,7.62
2018-11-03T07:38:13.217Z,7.45
2018-11-03T07:39:16.584Z,7.50
2018-11-03T07:40:19.984Z,7.60
2018-11-03T07:41:23.403Z,8.05
2018-11-03T07:42:26.792Z,7.80
2018-11-03T07:43:30.188Z,7.15
2018-11-03T07:44:33.552Z,7.97
2018-11-03T07:45:36.923Z,7.97
2018-11-03T07:46:40.412Z,8.75
2018-11-03T07:47:43.736Z,7.00
2018-11-03T07:48:47.327Z,8.50
2018-11-03T07:49:50.707Z,7.20
2018-11-03T07:50:54.108Z,7.80
2018-11-03T07:51:57.531Z,7.95
2018-11-03T07:53:00.943Z,9.13
2018-11-03T07:54:04.411Z,9.05
2018-11-03T07:55:09.345Z,9.05
2018-11-03T07:56:12.750Z,8.83
2018-11-03T07:57:16.167Z,8.28
2018-11-03T07:58:19.731Z,7.60
2018-11-03T07:59:23.108Z,7.67
2018-11-03T08:00:26.597Z,8.20
2018-11-03T08:01:29.893Z,8.28
2018-11-03T08:02:33.683Z,7.50
2018-11-03T08:03:37.073Z,8.28
2018-11-03T08:04:40.492Z,8.43
2018-11-03T08:05:43.857Z,8.28
2018-11-03T08:06:47.228Z,8.78
2018-11-03T08:07:50.616Z,8.10
2018-11-03T08:08:54.066Z,8.33
2018-11-03T08:09:57.385Z,9.65
2018-11-03T08:11:00.794Z,10.30
2018-11-03T08:12:04.213Z,10.85
2018-11-03T08:13:07.848Z,10.88
2018-11-03T08:14:11.278Z,10.45
2018-11-03T08:15:14.724Z,10.78
2018-11-03T08:16:18.112Z,10.45
2018-11-03T08:17:21.495Z,9.05
2018-11-03T08:18:24.933Z,9.78
2018-11-03T08:19:28.417Z,10.58
2018-11-03T08:20:31.824Z,11.03
2018-11-03T08:21:35.433Z,10.78
2018-11-03T08:22:39.238Z,10.55
2018-11-03T08:23:42.647Z,10.90
2018-11-03T08:24:46.053Z,11.10
2018-11-03T08:25:49.451Z,12.03
2018-11-03T08:26:52.911Z,11.03
2018-11-03T08:27:56.793Z,10.78
2018-11-03T08:29:00.230Z,12.30
2018-11-03T08:30:03.695Z,11.15
2018-11-03T08:31:07.116Z,11.45
2018-11-03T08:32:10.509Z,11.18
2018-11-03T08:33:13.894Z,11.55
2018-11-03T08:34:17.330Z,13.03
2018-11-03T08:35:21.624Z,13.48
2018-11-03T08:36:24.996Z,11.12
2018-11-03T08:37:28.453Z,10.08
2018-11-03T08:38:31.888Z,10.45
2018-11-03T08:39:35.335Z,10.15
2018-11-03T08:40:38.661Z,10.72
2018-11-03T08:41:42.053Z,10.63
2018-11-03T08:42:45.440Z,10.32
2018-11-03T08:43:48.812Z,10.60
2018-11-03T08:44:52.276Z,10.95
2018-11-03T08:45:55.660Z,10.55
2018-11-03T08:46:59.053Z,9.93
2018-11-03T08:48:02.492Z,10.40
2018-11-03T08:49:06.433Z,10.58
2018-11-03T08:50:11.276Z,8.60
2018-11-03T08:51:14.668Z,9.18
2018-11-03T08:52:18.083Z,9.63
2018-11-03T08:53:21.452Z,9.38
2018-11-03T08:54:24.893Z,9.50
2018-11-03T08:55:28.332Z,10.10
2018-11-03T08:56:31.900Z,10.03
2018-11-03T08:57:35.334Z,9.90
2018-11-03T08:58:38.736Z,9.70
2018-11-03T08:59:42.224Z,11.85
2018-11-03T09:00:45.573Z,12.00
2018-11-03T09:01:49.048Z,10.50
2018-11-03T09:02:52.504Z,10.32
2018-11-03T09:03:55.933Z,9.68
2018-11-03T09:04:59.313Z,11.35
2018-11-03T09:06:02.756Z,11.55
2018-11-03T09:07:06.323Z,11.28
2018-11-03T09:08:09.548Z,11.73
2018-11-03T09:09:12.934Z,10.68
2018-11-03T09:10:16.349Z,10.53
2018-11-03T09:11:19.776Z,12.95
2018-11-03T09:12:23.158Z,14.75
2018-11-03T09:13:26.540Z,14.28
2018-11-03T09:14:29.976Z,11.43
2018-11-03T09:15:33.352Z,12.13
2018-11-03T09:16:36.762Z,11.35
2018-11-03T09:17:41.069Z,11.03
2018-11-03T09:18:44.448Z,12.53
2018-11-03T09:19:47.888Z,11.50
2018-11-03T09:20:51.284Z,12.33
2018-11-03T09:21:54.736Z,12.00
2018-11-03T09:22:58.105Z,11.78
2018-11-03T09:24:01.614Z,11.12
2018-11-03T09:25:06.084Z,10.15
2018-11-03T09:26:09.464Z,12.18
2018-11-03T09:27:12.907Z,12.70
2018-11-03T09:28:16.351Z,11.60
2018-11-03T09:29:19.737Z,11.15
2018-11-03T09:30:23.167Z,10.93
2018-11-03T09:31:26.587Z,11.65
2018-11-03T09:32:30.025Z,10.55
2018-11-03T09:33:33.420Z,11.08
2018-11-03T09:34:36.889Z,11.65
2018-11-03T09:35:40.236Z,11.68
2018-11-03T09:36:43.625Z,11.22
2018-11-03T09:37:47.029Z,11.15
2018-11-03T09:38:50.436Z,11.22
2018-11-03T09:39:53.830Z,11.50
2018-11-03T09:40:57.223Z,11.12
2018-11-03T09:42:00.606Z,11.30
2018-11-03T09:43:04.145Z,12.10
2018-11-03T09:44:07.703Z,12.70
2018-11-03T09:45:12.026Z,12.47
2018-11-03T09:46:15.293Z,12.60
2018-11-03T09:47:18.700Z,12.05
2018-11-03T09:48:22.101Z,11.73
2018-11-03T09:49:25.508Z,11.53
2018-11-03T09:50:28.914Z,11.73
2018-11-03T09:51:32.320Z,11.18
2018-11-03T09:52:35.691Z,11.93
2018-11-03T09:53:39.089Z,11.97
2018-11-03T09:54:42.468Z,11.25
2018-11-03T09:55:45.848Z,11.80
2018-11-03T09:56:49.294Z,11.05
2018-11-03T09:57:52.633Z,12.18
2018-11-03T09:58:56.048Z,11.40
2018-11-03T09:59:59.453Z,11.25
2018-11-03T10:01:03.028Z,11.65
2018-11-03T10:02:06.410Z,10.90
2018-11-03T10:03:09.805Z,10.28
2018-11-03T10:04:13.221Z,10.65
2018-11-03T10:05:16.968Z,10.75
2018-11-03T10:06:20.450Z,11.43
2018-11-03T10:07:23.776Z,12.75
2018-11-03T10:08:27.220Z,12.25
2018-11-03T10:09:30.730Z,12.90
2018-11-03T10:10:34.124Z,12.95
2018-11-03T10:11:37.517Z,11.00
2018-11-03T10:12:41.172Z,11.75
2018-11-03T10:13:44.588Z,12.55
2018-11-03T10:14:47.976Z,11.90
2018-11-03T10:15:51.407Z,10.53
2018-11-03T10:16:54.792Z,11.22
2018-11-03T10:17:58.257Z,12.98
2018-11-03T10:19:01.678Z,11.75
2018-11-03T10:20:05.884Z,10.80
2018-11-03T10:21:09.264Z,11.43
2018-11-03T10:22:12.675Z,15.28
2018-11-03T10:23:16.044Z,14.55
2018-11-03T10:24:19.468Z,11.08
2018-11-03T10:25:22.899Z,10.95
2018-11-03T10:26:26.302Z,12.30
2018-11-03T10:27:29.679Z,11.95
2018-11-03T10:28:33.068Z,12.07
2018-11-03T10:29:36.480Z,11.83
2018-11-03T10:30:39.900Z,12.13
2018-11-03T10:31:43.287Z,13.53
2018-11-03T10:32:47.240Z,12.70
2018-11-03T10:33:50.734Z,12.58
2018-11-03T10:34:54.020Z,12.10
2018-11-03T10:35:57.427Z,12.95
2018-11-03T10:37:00.826Z,12.28
2018-11-03T10:38:04.214Z,12.18
2018-11-03T10:39:09.504Z,14.23
2018-11-03T10:40:14.870Z,14.15
2018-11-03T10:41:18.320Z,13.22
2018-11-03T10:42:21.752Z,11.78
2018-11-03T10:43:25.115Z,12.53
2018-11-03T10:44:28.488Z,12.53
2018-11-03T10:45:31.866Z,12.65
2018-11-03T10:46:35.410Z,11.38
2018-11-03T10:47:38.839Z,11.43
2018-11-03T10:48:42.402Z,11.80
2018-11-03T10:49:45.776Z,11.65
2018-11-03T10:50:49.141Z,11.90
2018-11-03T10:51:52.538Z,11.33
2018-11-03T10:52:55.972Z,12.45
2018-11-03T10:53:59.388Z,12.68
2018-11-03T10:55:02.763Z,12.37
2018-11-03T10:56:06.144Z,12.78
2018-11-03T10:57:10.259Z,12.98
2018-11-03T10:58:13.700Z,12.45
2018-11-03T10:59:17.104Z,13.13
2018-11-03T11:00:26.518Z,12.75
2018-11-03T11:01:35.378Z,12.95
2018-11-03T11:02:44.771Z,12.90
2018-11-03T11:03:53.621Z,12.88
2018-11-03T11:05:02.332Z,12.88
2018-11-03T11:06:11.321Z,13.25
2018-11-03T11:07:20.119Z,13.10
2018-11-03T11:08:28.853Z,12.78
2018-11-03T11:09:37.500Z,12.85
2018-11-03T11:10:46.260Z,12.07
2018-11-03T11:11:55.094Z,12.85
2018-11-03T11:13:08.516Z,12.50
2018-11-03T11:14:12.001Z,12.60
2018-11-03T11:15:15.398Z,12.93
2018-11-03T11:16:18.948Z,12.75
2018-11-03T11:17:22.406Z,12.98
2018-11-03T11:18:25.868Z,12.93
2018-11-03T11:19:29.261Z,11.63
2018-11-03T11:20:32.701Z,13.60
2018-11-03T11:21:36.114Z,13.85
2018-11-03T11:22:39.540Z,12.98
2018-11-03T11:23:43.023Z,12.13
2018-11-03T11:24:46.758Z,12.15
2018-11-03T11:25:50.003Z,11.65
2018-11-03T11:26:53.515Z,12.35
2018-11-03T11:27:57.160Z,10.78
2018-11-03T11:29:00.573Z,11.45
2018-11-03T11:30:04.019Z,11.25
2018-11-03T11:31:07.436Z,10.85
2018-11-03T11:32:10.795Z,11.15
2018-11-03T11:33:15.414Z,11.83
2018-11-03T11:34:19.656Z,12.35
2018-11-03T11:35:23.066Z,11.65
2018-11-03T11:36:26.468Z,10.80
2018-11-03T11:37:29.906Z,11.10
2018-11-03T11:38:33.306Z,11.12
2018-11-03T11:39:36.664Z,11.00
2018-11-03T11:40:40.437Z,10.58
2018-11-03T11:41:43.935Z,10.40
2018-11-03T11:42:47.488Z,10.72
2018-11-03T11:43:50.813Z,10.70
2018-11-03T11:44:54.255Z,10.30
2018-11-03T11:45:57.695Z,10.78
2018-11-03T11:47:01.070Z,10.50
2018-11-03T11:48:04.466Z,9.85
2018-11-03T11:49:07.964Z,9.98
2018-11-03T11:50:11.353Z,10.13
2018-11-03T11:51:14.800Z,10.38
2018-11-03T11:52:18.207Z,9.08
2018-11-03T11:53:21.588Z,8.80
2018-11-03T11:54:25.041Z,9.48
2018-11-03T11:55:28.445Z,10.38
2018-11-03T11:56:31.831Z,8.98
2018-11-03T11:57:35.244Z,8.70
2018-11-03T11:58:38.629Z,9.03
2018-11-03T11:59:42.213Z,9.03
2018-11-03T12:00:45.666Z,8.38
2018-11-03T12:01:49.035Z,9.08
2018-11-03T12:02:52.467Z,9.00
2018-11-03T12:03:55.924Z,8.20
2018-11-03T12:04:59.425Z,7.87
2018-11-03T12:06:02.808Z,9.08
2018-11-03T12:07:06.220Z,9.25
2018-11-03T12:08:09.666Z,8.45
2018-11-03T12:09:13.052Z,7.53
2018-11-03T12:10:16.570Z,8.08
2018-11-03T12:11:19.929Z,8.53
2018-11-03T12:12:23.517Z,7.90
2018-11-03T12:13:26.944Z,6.97
2018-11-03T12:14:30.317Z,7.35
2018-11-03T12:15:33.780Z,7.55
2018-11-03T12:16:37.208Z,8.95
2018-11-03T12:17:40.818Z,9.38
2018-11-03T12:18:44.244Z,8.75
2018-11-03T12:19:47.645Z,8.90
2018-11-03T12:20:51.034Z,8.25
2018-11-03T12:21:54.464Z,6.92
2018-11-03T12:22:57.841Z,7.47
2018-11-03T12:24:01.284Z,7.95
2018-11-03T12:25:05.040Z,7.97
2018-11-03T12:26:08.650Z,8.83
2018-11-03T12:27:12.031Z,8.20
2018-11-03T12:28:15.424Z,8.30
2018-11-03T12:29:18.832Z,9.98
2018-11-03T12:30:22.233Z,7.80
2018-11-03T12:31:25.628Z,8.38
2018-11-03T12:32:29.016Z,8.98
2018-11-03T12:33:32.460Z,7.83
2018-11-03T12:34:35.897Z,7.80
2018-11-03T12:35:39.316Z,8.05
2018-11-03T12:36:42.775Z,9.85
2018-11-03T12:37:46.251Z,11.78
2018-11-03T12:38:49.689Z,10.80
2018-11-03T12:39:53.108Z,9.38
2018-11-03T12:40:56.618Z,9.55
2018-11-03T12:41:59.971Z,8.90
2018-11-03T12:43:03.422Z,8.35
2018-11-03T12:44:06.831Z,8.03
2018-11-03T12:45:10.983Z,7.20
2018-11-03T12:46:14.396Z,7.20
2018-11-03T12:47:17.747Z,7.05
2018-11-03T12:48:21.151Z,8.50
2018-11-03T12:49:24.541Z,8.48
2018-11-03T12:50:27.941Z,7.97
2018-11-03T12:51:31.367Z,7.67
2018-11-03T12:52:34.763Z,8.53
2018-11-03T12:53:38.147Z,10.13
2018-11-03T12:54:41.533Z,10.72
2018-11-03T12:55:44.921Z,8.50
2018-11-03T12:56:48.313Z,8.10
2018-11-03T12:57:51.723Z,7.47
2018-11-03T12:58:55.105Z,8.40
2018-11-03T12:59:58.505Z,8.73
2018-11-03T13:01:02.088Z,9.50
2018-11-03T13:02:06.381Z,8.85
2018-11-03T13:03:09.898Z,7.95
2018-11-03T13:04:13.262Z,9.08
2018-11-03T13:05:16.759Z,8.03
2018-11-03T13:06:20.071Z,6.95
2018-11-03T13:07:23.536Z,7.40
2018-11-03T13:08:26.928Z,6.35
2018-11-03T13:09:30.374Z,6.75
2018-11-03T13:10:33.854Z,6.22
2018-11-03T13:11:37.291Z,6.15
2018-11-03T13:12:41.559Z,5.80
2018-11-03T13:13:45.017Z,6.62
2018-11-03T13:14:48.435Z,7.28
2018-11-03T13:15:51.829Z,7.25
2018-11-03T13:16:55.193Z,6.08
2018-11-03T13:17:58.572Z,6.50
2018-11-03T13:19:02.293Z,6.28
2018-11-03T13:20:07.043Z,6.47
2018-11-03T13:21:10.418Z,6.08
2018-11-03T13:22:13.792Z,6.70
2018-11-03T13:23:17.201Z,6.67
2018-11-03T13:24:20.584Z,6.35
2018-11-03T13:25:23.961Z,7.33
2018-11-03T13:26:27.332Z,7.65
2018-11-03T13:27:30.709Z,7.50
2018-11-03T13:28:34.084Z,7.00
2018-11-03T13:29:37.496Z,6.35
2018-11-03T13:30:40.866Z,6.40
2018-11-03T13:31:44.232Z,6.80
2018-11-03T13:32:47.636Z,7.10
2018-11-03T13:33:51.024Z,6.92
2018-11-03T13:34:54.486Z,7.45
2018-11-03T13:35:57.827Z,7.20
2018-11-03T13:37:01.196Z,6.97
2018-11-03T13:38:04.809Z,6.25
2018-11-03T13:39:09.139Z,5.42
2018-11-03T13:40:13.638Z,5.67
2018-11-03T13:41:17.055Z,5.15
2018-11-03T13:42:20.511Z,5.22
2018-11-03T13:43:23.872Z,5.25
2018-11-03T13:44:27.248Z,5.25
2018-11-03T13:45:30.672Z,5.78
2018-11-03T13:46:34.089Z,5.85
2018-11-03T13:47:38.455Z,5.60
2018-11-03T13:48:41.804Z,6.95
2018-11-03T13:49:45.220Z,6.58
2018-11-03T13:50:48.656Z,6.35
2018-11-03T13:51:52.038Z,6.00
2018-11-03T13:52:55.432Z,6.28
2018-11-03T13:53:58.830Z,5.75
2018-11-03T13:55:02.226Z,6.85
2018-11-03T13:56:05.963Z,6.45
2018-11-03T13:57:09.487Z,5.08
2018-11-03T13:58:12.736Z,4.42